Hc Nadja Maria — V2AV4 — position and weather

sailwx.info

Track history (hours):
 
Tides and Currents Weather Stations Pressure Air Temp Water Temp Dewpoint Dewpoint Depression Visibility Wind Speed Wind Dir Waves Ship Positions

Hc Nadja Maria

Last reported at 2014-Aug-22 13:28 UTC. Time now 2014-Sep-15 02:08 UTC.
Position N 50°27' W 000°25'.
Warning: this ship's position is 23 days out of date.

Length 129 m; draft 7.9 m.

Type: Ship (hazmat cat A). MMSI: 304204000.

Date/timePositionNaut miles runAvg speedWind from/ knotsBaromVisibWave heightAir tempDewpointWater temp
2014-Aug-22 13:28N 50°27' W 000°25'1414.2
2014-Aug-22 12:27N 50°31' W 000°03'1313.8
2014-Aug-22 11:31N 50°34' E 000°16'1313.2
2014-Aug-22 10:33N 50°38' E 000°35'1312.5
2014-Aug-22 09:33N 50°46' E 000°51'1812.1
2014-Aug-22 08:04N 50°57' E 001°13'612.4
2014-Aug-22 07:33N 51°01' E 001°21'1413.6
2014-Aug-22 06:34N 51°09' E 001°38'1414.0
2014-Aug-22 05:33N 51°21' E 001°51'1413.7
2014-Aug-22 04:33N 51°32' E 002°03'1313.0
2014-Aug-22 03:33N 51°42' E 002°17'13611.8
2014-Aug-21 16:04N 53°27' E 004°38'611.5
2014-Aug-21 15:33N 53°30' E 004°48'1111.0
2014-Aug-21 14:33N 53°34' E 005°04'1111.4
2014-Aug-21 13:33N 53°37' E 005°22'1212.1
2014-Aug-21 12:33N 53°42' E 005°42'1312.9
2014-Aug-21 11:33N 53°45' E 006°03'5612.7
2014-Aug-21 07:10N 53°59' E 007°35'610.2
2014-Aug-21 06:32N 53°55' E 007°44'10 9.1
2014-Aug-21 05:29N 53°51' E 007°58'9 9.8
2014-Aug-21 04:33N 53°46' E 008°11'1010.4
2014-Aug-21 03:33N 53°39' E 008°24'10 9.6
2014-Aug-21 02:33N 53°31' E 008°32'1111.3
2014-Aug-21 01:34N 53°20' E 008°29'10 9.8
2014-Aug-21 00:33N 53°10' E 008°35'7 7.1
2014-Aug-20 23:34N 53°06' E 008°44'0 0.1
2014-Aug-20 22:33N 53°06' E 008°44'0 0.0
2014-Aug-20 21:33N 53°06' E 008°44'0 0.0
2014-Aug-20 20:33N 53°06' E 008°44'0 0.0
2014-Aug-20 19:33N 53°06' E 008°44'0 0.0
2014-Aug-20 18:33N 53°06' E 008°44'0 0.0
2014-Aug-20 17:33N 53°06' E 008°44'0 0.0
2014-Aug-20 16:33N 53°06' E 008°44'0 0.0
2014-Aug-20 15:33N 53°06' E 008°44'0 0.0
2014-Aug-20 14:33N 53°06' E 008°44'0 0.0
2014-Aug-20 13:33N 53°06' E 008°44'0 0.0
2014-Aug-20 12:33N 53°06' E 008°44'0 0.0
2014-Aug-20 11:33N 53°06' E 008°44'0 0.0
2014-Aug-20 10:33N 53°06' E 008°44'0 0.0
2014-Aug-20 09:33N 53°06' E 008°44'0 0.0
2014-Aug-20 08:33N 53°06' E 008°44'0 0.0
2014-Aug-20 07:33N 53°06' E 008°44'0 0.0
2014-Aug-20 06:33N 53°06' E 008°44'0 0.0
2014-Aug-20 05:33N 53°06' E 008°44'0 0.0
2014-Aug-20 04:30N 53°06' E 008°44'0 0.0
2014-Aug-20 03:33N 53°06' E 008°44'0 0.0
2014-Aug-20 02:33N 53°06' E 008°44'0 0.0
2014-Aug-20 01:33N 53°06' E 008°44'0 0.0
2014-Aug-20 00:33N 53°06' E 008°44'0 0.0
2014-Aug-19 23:33N 53°06' E 008°44'0 0.0
2014-Aug-19 22:33N 53°06' E 008°44'0 0.0
2014-Aug-19 21:33N 53°06' E 008°44'0 0.0
2014-Aug-19 20:33N 53°06' E 008°44'0 0.0
2014-Aug-19 19:33N 53°06' E 008°44'0 0.0
2014-Aug-19 18:33N 53°06' E 008°44'0 0.0
2014-Aug-19 17:33N 53°06' E 008°44'0 0.0
2014-Aug-19 16:33N 53°06' E 008°44'0 0.0
2014-Aug-19 15:33N 53°06' E 008°44'0 0.0
2014-Aug-19 14:33N 53°06' E 008°44'0 0.0
2014-Aug-19 13:33N 53°06' E 008°44'0 0.0
2014-Aug-19 12:33N 53°06' E 008°44'0 0.0
2014-Aug-19 11:33N 53°06' E 008°44'0 0.0
2014-Aug-19 10:33N 53°06' E 008°44'0 0.0
2014-Aug-19 09:33N 53°06' E 008°44'0 0.0
2014-Aug-19 08:33N 53°06' E 008°44'0 0.0
2014-Aug-19 07:33N 53°06' E 008°44'0 0.0
2014-Aug-19 06:33N 53°06' E 008°44'0 0.0
2014-Aug-19 05:33N 53°06' E 008°44'0 0.0
2014-Aug-19 04:33N 53°06' E 008°44'0 0.0
2014-Aug-19 03:33N 53°06' E 008°44'0 0.0
2014-Aug-19 02:33N 53°06' E 008°44'0 0.0
2014-Aug-19 01:33N 53°06' E 008°44'0 0.0
2014-Aug-19 00:33N 53°06' E 008°44'0 0.0
2014-Aug-18 23:33N 53°06' E 008°44'0 0.0
2014-Aug-18 22:33N 53°06' E 008°44'0 0.0
2014-Aug-18 21:33N 53°06' E 008°44'0 0.0
2014-Aug-18 20:33N 53°06' E 008°44'0 0.0
2014-Aug-18 19:33N 53°06' E 008°44'0 0.0
2014-Aug-18 18:33N 53°06' E 008°44'0 0.0
2014-Aug-18 17:33N 53°06' E 008°44'0 0.0
2014-Aug-18 16:33N 53°06' E 008°44'0 0.0
2014-Aug-18 15:34N 53°06' E 008°44'0 0.0
2014-Aug-18 14:33N 53°06' E 008°44'0 0.0
2014-Aug-18 13:33N 53°06' E 008°44'0 0.0
2014-Aug-18 12:32N 53°06' E 008°44'0 0.0
2014-Aug-18 11:32N 53°06' E 008°44'0 0.0
2014-Aug-18 10:32N 53°06' E 008°44'0 0.0
2014-Aug-18 09:32N 53°06' E 008°44'0 0.0
2014-Aug-18 08:32N 53°06' E 008°44'0 0.0
2014-Aug-18 07:32N 53°06' E 008°44'0 0.0
2014-Aug-18 06:32N 53°06' E 008°44'0 0.0
2014-Aug-18 05:32N 53°06' E 008°44'0 0.0
2014-Aug-18 04:32N 53°06' E 008°44'0 0.0
2014-Aug-18 03:32N 53°06' E 008°44'0 0.0
2014-Aug-18 02:32N 53°06' E 008°44'0 0.0
2014-Aug-18 01:32N 53°06' E 008°44'0 0.0
2014-Aug-18 00:32N 53°06' E 008°44'0 0.0
2014-Aug-17 18:32N 53°06' E 008°44'0 0.0
2014-Aug-17 17:32N 53°06' E 008°44'0 0.0
2014-Aug-17 16:32N 53°06' E 008°44'0 0.0
2014-Aug-17 15:32N 53°06' E 008°44'0 0.0
2014-Aug-17 14:32N 53°06' E 008°44'0 0.0
2014-Aug-17 13:32N 53°06' E 008°44'0 0.0
2014-Aug-17 12:32N 53°06' E 008°44'0 0.0
2014-Aug-17 11:32N 53°06' E 008°44'0 0.0
2014-Aug-17 10:32N 53°06' E 008°44'0 0.0
2014-Aug-17 09:32N 53°06' E 008°44'0 0.0
2014-Aug-17 08:32N 53°06' E 008°44'0 0.0
2014-Aug-17 07:32N 53°06' E 008°44'0 0.0
2014-Aug-17 06:32N 53°06' E 008°44'0 0.0
2014-Aug-17 05:32N 53°06' E 008°44'0 0.0
2014-Aug-17 04:32N 53°06' E 008°44'0 0.0
2014-Aug-17 03:32N 53°06' E 008°44'0 0.0
2014-Aug-17 02:32N 53°06' E 008°44'0 0.0
2014-Aug-17 01:32N 53°06' E 008°44'0 0.0
2014-Aug-17 00:32N 53°06' E 008°44'0 0.0
2014-Aug-16 23:32N 53°06' E 008°44'0 0.0
2014-Aug-16 22:32N 53°06' E 008°44'0 0.0
2014-Aug-16 21:32N 53°06' E 008°44'0 0.0
2014-Aug-16 20:32N 53°06' E 008°44'0 0.0
2014-Aug-16 19:32N 53°06' E 008°44'0 0.0
2014-Aug-16 18:32N 53°06' E 008°44'0 0.0
2014-Aug-16 17:32N 53°06' E 008°44'0 0.0
2014-Aug-16 16:32N 53°06' E 008°44'0 0.0
2014-Aug-16 15:32N 53°06' E 008°44'0 0.0
2014-Aug-16 14:32N 53°06' E 008°44'0 0.0
2014-Aug-16 13:34N 53°06' E 008°44'0 0.0
2014-Aug-16 12:33N 53°06' E 008°44'0 0.0
2014-Aug-16 11:34N 53°06' E 008°44'0 0.0
2014-Aug-16 10:33N 53°06' E 008°44'0 0.0
2014-Aug-16 09:34N 53°06' E 008°44'0 0.0
2014-Aug-16 08:33N 53°06' E 008°44'0 0.0
2014-Aug-16 07:33N 53°06' E 008°44'0 0.0
2014-Aug-16 06:33N 53°06' E 008°44'0 0.0
2014-Aug-16 05:33N 53°06' E 008°44'0 0.0
2014-Aug-16 04:34N 53°06' E 008°44'0 0.0
2014-Aug-16 03:33N 53°06' E 008°44'0 0.0
2014-Aug-16 02:34N 53°06' E 008°44'0 0.0
2014-Aug-16 01:33N 53°06' E 008°44'0 0.0
2014-Aug-16 00:33N 53°06' E 008°44'0 0.0
2014-Aug-15 23:33N 53°06' E 008°44'0 0.0
2014-Aug-15 22:33N 53°06' E 008°44'0 0.0
2014-Aug-15 21:33N 53°06' E 008°44'0 0.0
2014-Aug-15 20:33N 53°06' E 008°44'0 0.0
2014-Aug-15 19:33N 53°06' E 008°44'0 0.0
2014-Aug-15 18:34N 53°06' E 008°44'0 0.0
2014-Aug-15 17:34N 53°06' E 008°44'2 1.7
2014-Aug-15 16:33N 53°07' E 008°42'0 0.5
2014-Aug-15 15:33N 53°07' E 008°43'0 0.0
2014-Aug-15 14:31N 53°07' E 008°43'0 0.0
2014-Aug-15 13:31N 53°07' E 008°43'0 0.0
2014-Aug-15 12:31N 53°07' E 008°43'0 0.0
2014-Aug-15 11:31N 53°07' E 008°43'0 0.0
2014-Aug-15 10:31N 53°07' E 008°43'0 0.0
2014-Aug-15 09:31N 53°07' E 008°43'0 0.0
2014-Aug-15 08:31N 53°07' E 008°43'0 0.0
2014-Aug-15 07:31N 53°07' E 008°43'0 0.0
2014-Aug-15 06:31N 53°07' E 008°43'0 0.0
2014-Aug-15 05:31N 53°07' E 008°43'0 0.0
2014-Aug-15 04:31N 53°07' E 008°43'0 0.0
2014-Aug-15 03:31N 53°07' E 008°43'0 0.0
2014-Aug-15 02:31N 53°07' E 008°43'0 0.0
2014-Aug-15 01:31N 53°07' E 008°43'0 0.0
2014-Aug-15 00:31N 53°07' E 008°43'0 0.0
2014-Aug-14 23:31N 53°07' E 008°43'0 0.0
2014-Aug-14 22:31N 53°07' E 008°43'0 0.0
2014-Aug-14 21:31N 53°07' E 008°43'0 0.0
2014-Aug-14 20:31N 53°07' E 008°43'0 0.0
2014-Aug-14 19:31N 53°07' E 008°43'0 0.0
2014-Aug-14 18:31N 53°07' E 008°43'0 0.0
2014-Aug-14 17:31N 53°07' E 008°43'0 0.0
2014-Aug-14 16:31N 53°07' E 008°43'0 0.0
2014-Aug-14 15:31N 53°07' E 008°43'0 0.0
2014-Aug-14 14:31N 53°07' E 008°43'0 0.0
2014-Aug-14 13:31N 53°07' E 008°43'0 0.0
2014-Aug-14 12:31N 53°07' E 008°43'0 0.0
2014-Aug-14 11:31N 53°07' E 008°43'0 0.1
2014-Aug-14 10:31N 53°07' E 008°43'0 0.0
2014-Aug-14 09:31N 53°08' E 008°43'0 0.0
2014-Aug-14 08:31N 53°08' E 008°43'0 0.0
2014-Aug-14 07:31N 53°08' E 008°43'0 0.0
2014-Aug-14 06:31N 53°08' E 008°43'0 0.4
2014-Aug-14 05:33N 53°07' E 008°43'5 4.7
2014-Aug-14 04:33N 53°10' E 008°37'9 9.0
2014-Aug-14 03:33N 53°18' E 008°29'1111.2
2014-Aug-14 02:33N 53°29' E 008°30'8 7.6
2014-Aug-14 01:33N 53°37' E 008°29'1413.8
2014-Aug-14 00:33N 53°46' E 008°11'1212.4
2014-Aug-13 23:33N 53°51' E 007°53'6613.2
2014-Aug-13 18:31N 53°41' E 006°02'1313.0
2014-Aug-13 17:33N 53°37' E 005°42'1212.2
2014-Aug-13 16:33N 53°33' E 005°22'1212.0
2014-Aug-13 15:34N 53°29' E 005°03'1111.1
2014-Aug-13 14:33N 53°24' E 004°46'13110.9
2014-Aug-13 02:33N 51°42' E 002°32'1212.2
2014-Aug-13 01:32N 51°32' E 002°19'1111.4
2014-Aug-13 00:33N 51°22' E 002°10'1111.0
2014-Aug-12 23:33N 51°13' E 002°02'1211.9
2014-Aug-12 22:33N 51°06' E 001°46'6 6.5
2014-Aug-12 21:34N 51°02' E 001°53'1412.7
2014-Aug-12 20:29N 51°04' E 002°14'4 4.0
2014-Aug-12 19:33N 51°03' E 002°20'2 1.8
2014-Aug-12 18:30N 51°03' E 002°18'1 1.3
2014-Aug-12 17:33N 51°02' E 002°16'0 0.0
2014-Aug-12 16:33N 51°02' E 002°16'0 0.0
2014-Aug-12 15:33N 51°02' E 002°16'0 0.0
2014-Aug-12 14:33N 51°02' E 002°16'0 0.0
2014-Aug-12 13:33N 51°02' E 002°16'  
Track history (hours):
 
Tides and Currents Weather Stations Pressure Air Temp Water Temp Dewpoint Dewpoint Depression Visibility Wind Speed Wind Dir Waves Ship Positions

Hc Nadja Maria

Last reported at 2014-Aug-22 13:28 UTC. Time now 2014-Sep-15 02:08 UTC.
Position N 50°27' W 000°25'.
Warning: this ship's position is 23 days out of date.

Length 129 m; draft 7.9 m.

Type: Ship (hazmat cat A). MMSI: 304204000.

Date/timePositionNaut miles runAvg speedWind from/ knotsBaromVisibWave heightAir tempDewpointWater temp
2014-Aug-22 13:28N 50°27' W 000°25'1414.2
2014-Aug-22 12:27N 50°31' W 000°03'1313.8
2014-Aug-22 11:31N 50°34' E 000°16'1313.2
2014-Aug-22 10:33N 50°38' E 000°35'1312.5
2014-Aug-22 09:33N 50°46' E 000°51'1812.1
2014-Aug-22 08:04N 50°57' E 001°13'612.4
2014-Aug-22 07:33N 51°01' E 001°21'1413.6
2014-Aug-22 06:34N 51°09' E 001°38'1414.0
2014-Aug-22 05:33N 51°21' E 001°51'1413.7
2014-Aug-22 04:33N 51°32' E 002°03'1313.0
2014-Aug-22 03:33N 51°42' E 002°17'13611.8
2014-Aug-21 16:04N 53°27' E 004°38'611.5
2014-Aug-21 15:33N 53°30' E 004°48'1111.0
2014-Aug-21 14:33N 53°34' E 005°04'1111.4
2014-Aug-21 13:33N 53°37' E 005°22'1212.1
2014-Aug-21 12:33N 53°42' E 005°42'1312.9
2014-Aug-21 11:33N 53°45' E 006°03'5612.7
2014-Aug-21 07:10N 53°59' E 007°35'610.2
2014-Aug-21 06:32N 53°55' E 007°44'10 9.1
2014-Aug-21 05:29N 53°51' E 007°58'9 9.8
2014-Aug-21 04:33N 53°46' E 008°11'1010.4
2014-Aug-21 03:33N 53°39' E 008°24'10 9.6
2014-Aug-21 02:33N 53°31' E 008°32'1111.3
2014-Aug-21 01:34N 53°20' E 008°29'10 9.8
2014-Aug-21 00:33N 53°10' E 008°35'7 7.1
2014-Aug-20 23:34N 53°06' E 008°44'0 0.1
2014-Aug-20 22:33N 53°06' E 008°44'0 0.0
2014-Aug-20 21:33N 53°06' E 008°44'0 0.0
2014-Aug-20 20:33N 53°06' E 008°44'0 0.0
2014-Aug-20 19:33N 53°06' E 008°44'0 0.0
2014-Aug-20 18:33N 53°06' E 008°44'0 0.0
2014-Aug-20 17:33N 53°06' E 008°44'0 0.0
2014-Aug-20 16:33N 53°06' E 008°44'0 0.0
2014-Aug-20 15:33N 53°06' E 008°44'0 0.0
2014-Aug-20 14:33N 53°06' E 008°44'0 0.0
2014-Aug-20 13:33N 53°06' E 008°44'0 0.0
2014-Aug-20 12:33N 53°06' E 008°44'0 0.0
2014-Aug-20 11:33N 53°06' E 008°44'0 0.0
2014-Aug-20 10:33N 53°06' E 008°44'0 0.0
2014-Aug-20 09:33N 53°06' E 008°44'0 0.0
2014-Aug-20 08:33N 53°06' E 008°44'0 0.0
2014-Aug-20 07:33N 53°06' E 008°44'0 0.0
2014-Aug-20 06:33N 53°06' E 008°44'0 0.0
2014-Aug-20 05:33N 53°06' E 008°44'0 0.0
2014-Aug-20 04:30N 53°06' E 008°44'0 0.0
2014-Aug-20 03:33N 53°06' E 008°44'0 0.0
2014-Aug-20 02:33N 53°06' E 008°44'0 0.0
2014-Aug-20 01:33N 53°06' E 008°44'0 0.0
2014-Aug-20 00:33N 53°06' E 008°44'0 0.0
2014-Aug-19 23:33N 53°06' E 008°44'0 0.0
2014-Aug-19 22:33N 53°06' E 008°44'0 0.0
2014-Aug-19 21:33N 53°06' E 008°44'0 0.0
2014-Aug-19 20:33N 53°06' E 008°44'0 0.0
2014-Aug-19 19:33N 53°06' E 008°44'0 0.0
2014-Aug-19 18:33N 53°06' E 008°44'0 0.0
2014-Aug-19 17:33N 53°06' E 008°44'0 0.0
2014-Aug-19 16:33N 53°06' E 008°44'0 0.0
2014-Aug-19 15:33N 53°06' E 008°44'0 0.0
2014-Aug-19 14:33N 53°06' E 008°44'0 0.0
2014-Aug-19 13:33N 53°06' E 008°44'0 0.0
2014-Aug-19 12:33N 53°06' E 008°44'0 0.0
2014-Aug-19 11:33N 53°06' E 008°44'0 0.0
2014-Aug-19 10:33N 53°06' E 008°44'0 0.0
2014-Aug-19 09:33N 53°06' E 008°44'0 0.0
2014-Aug-19 08:33N 53°06' E 008°44'0 0.0
2014-Aug-19 07:33N 53°06' E 008°44'0 0.0
2014-Aug-19 06:33N 53°06' E 008°44'0 0.0
2014-Aug-19 05:33N 53°06' E 008°44'0 0.0
2014-Aug-19 04:33N 53°06' E 008°44'0 0.0
2014-Aug-19 03:33N 53°06' E 008°44'0 0.0
2014-Aug-19 02:33N 53°06' E 008°44'0 0.0
2014-Aug-19 01:33N 53°06' E 008°44'0 0.0
2014-Aug-19 00:33N 53°06' E 008°44'0 0.0
2014-Aug-18 23:33N 53°06' E 008°44'0 0.0
2014-Aug-18 22:33N 53°06' E 008°44'0 0.0
2014-Aug-18 21:33N 53°06' E 008°44'0 0.0
2014-Aug-18 20:33N 53°06' E 008°44'0 0.0
2014-Aug-18 19:33N 53°06' E 008°44'0 0.0
2014-Aug-18 18:33N 53°06' E 008°44'0 0.0
2014-Aug-18 17:33N 53°06' E 008°44'0 0.0
2014-Aug-18 16:33N 53°06' E 008°44'0 0.0
2014-Aug-18 15:34N 53°06' E 008°44'0 0.0
2014-Aug-18 14:33N 53°06' E 008°44'0 0.0
2014-Aug-18 13:33N 53°06' E 008°44'0 0.0
2014-Aug-18 12:32N 53°06' E 008°44'0 0.0
2014-Aug-18 11:32N 53°06' E 008°44'0 0.0
2014-Aug-18 10:32N 53°06' E 008°44'0 0.0
2014-Aug-18 09:32N 53°06' E 008°44'0 0.0
2014-Aug-18 08:32N 53°06' E 008°44'0 0.0
2014-Aug-18 07:32N 53°06' E 008°44'0 0.0
2014-Aug-18 06:32N 53°06' E 008°44'0 0.0
2014-Aug-18 05:32N 53°06' E 008°44'0 0.0
2014-Aug-18 04:32N 53°06' E 008°44'0 0.0
2014-Aug-18 03:32N 53°06' E 008°44'0 0.0
2014-Aug-18 02:32N 53°06' E 008°44'0 0.0
2014-Aug-18 01:32N 53°06' E 008°44'0 0.0
2014-Aug-18 00:32N 53°06' E 008°44'0 0.0
2014-Aug-17 18:32N 53°06' E 008°44'0 0.0
2014-Aug-17 17:32N 53°06' E 008°44'0 0.0
2014-Aug-17 16:32N 53°06' E 008°44'0 0.0
2014-Aug-17 15:32N 53°06' E 008°44'0 0.0
2014-Aug-17 14:32N 53°06' E 008°44'0 0.0
2014-Aug-17 13:32N 53°06' E 008°44'0 0.0
2014-Aug-17 12:32N 53°06' E 008°44'0 0.0
2014-Aug-17 11:32N 53°06' E 008°44'0 0.0
2014-Aug-17 10:32N 53°06' E 008°44'0 0.0
2014-Aug-17 09:32N 53°06' E 008°44'0 0.0
2014-Aug-17 08:32N 53°06' E 008°44'0 0.0
2014-Aug-17 07:32N 53°06' E 008°44'0 0.0
2014-Aug-17 06:32N 53°06' E 008°44'0 0.0
2014-Aug-17 05:32N 53°06' E 008°44'0 0.0
2014-Aug-17 04:32N 53°06' E 008°44'0 0.0
2014-Aug-17 03:32N 53°06' E 008°44'0 0.0
2014-Aug-17 02:32N 53°06' E 008°44'0 0.0
2014-Aug-17 01:32N 53°06' E 008°44'0 0.0
2014-Aug-17 00:32N 53°06' E 008°44'0 0.0
2014-Aug-16 23:32N 53°06' E 008°44'0 0.0
2014-Aug-16 22:32N 53°06' E 008°44'0 0.0
2014-Aug-16 21:32N 53°06' E 008°44'0 0.0
2014-Aug-16 20:32N 53°06' E 008°44'0 0.0
2014-Aug-16 19:32N 53°06' E 008°44'0 0.0
2014-Aug-16 18:32N 53°06' E 008°44'0 0.0
2014-Aug-16 17:32N 53°06' E 008°44'0 0.0
2014-Aug-16 16:32N 53°06' E 008°44'0 0.0
2014-Aug-16 15:32N 53°06' E 008°44'0 0.0
2014-Aug-16 14:32N 53°06' E 008°44'0 0.0
2014-Aug-16 13:34N 53°06' E 008°44'0 0.0
2014-Aug-16 12:33N 53°06' E 008°44'0 0.0
2014-Aug-16 11:34N 53°06' E 008°44'0 0.0
2014-Aug-16 10:33N 53°06' E 008°44'0 0.0
2014-Aug-16 09:34N 53°06' E 008°44'0 0.0
2014-Aug-16 08:33N 53°06' E 008°44'0 0.0
2014-Aug-16 07:33N 53°06' E 008°44'0 0.0
2014-Aug-16 06:33N 53°06' E 008°44'0 0.0
2014-Aug-16 05:33N 53°06' E 008°44'0 0.0
2014-Aug-16 04:34N 53°06' E 008°44'0 0.0
2014-Aug-16 03:33N 53°06' E 008°44'0 0.0
2014-Aug-16 02:34N 53°06' E 008°44'0 0.0
2014-Aug-16 01:33N 53°06' E 008°44'0 0.0
2014-Aug-16 00:33N 53°06' E 008°44'0 0.0
2014-Aug-15 23:33N 53°06' E 008°44'0 0.0
2014-Aug-15 22:33N 53°06' E 008°44'0 0.0
2014-Aug-15 21:33N 53°06' E 008°44'0 0.0
2014-Aug-15 20:33N 53°06' E 008°44'0 0.0
2014-Aug-15 19:33N 53°06' E 008°44'0 0.0
2014-Aug-15 18:34N 53°06' E 008°44'0 0.0
2014-Aug-15 17:34N 53°06' E 008°44'2 1.7
2014-Aug-15 16:33N 53°07' E 008°42'0 0.5
2014-Aug-15 15:33N 53°07' E 008°43'0 0.0
2014-Aug-15 14:31N 53°07' E 008°43'0 0.0
2014-Aug-15 13:31N 53°07' E 008°43'0 0.0
2014-Aug-15 12:31N 53°07' E 008°43'0 0.0
2014-Aug-15 11:31N 53°07' E 008°43'0 0.0
2014-Aug-15 10:31N 53°07' E 008°43'0 0.0
2014-Aug-15 09:31N 53°07' E 008°43'0 0.0
2014-Aug-15 08:31N 53°07' E 008°43'0 0.0
2014-Aug-15 07:31N 53°07' E 008°43'0 0.0
2014-Aug-15 06:31N 53°07' E 008°43'0 0.0
2014-Aug-15 05:31N 53°07' E 008°43'0 0.0
2014-Aug-15 04:31N 53°07' E 008°43'0 0.0
2014-Aug-15 03:31N 53°07' E 008°43'0 0.0
2014-Aug-15 02:31N 53°07' E 008°43'0 0.0
2014-Aug-15 01:31N 53°07' E 008°43'0 0.0
2014-Aug-15 00:31N 53°07' E 008°43'0 0.0
2014-Aug-14 23:31N 53°07' E 008°43'0 0.0
2014-Aug-14 22:31N 53°07' E 008°43'0 0.0
2014-Aug-14 21:31N 53°07' E 008°43'0 0.0
2014-Aug-14 20:31N 53°07' E 008°43'0 0.0
2014-Aug-14 19:31N 53°07' E 008°43'0 0.0
2014-Aug-14 18:31N 53°07' E 008°43'0 0.0
2014-Aug-14 17:31N 53°07' E 008°43'0 0.0
2014-Aug-14 16:31N 53°07' E 008°43'0 0.0
2014-Aug-14 15:31N 53°07' E 008°43'0 0.0
2014-Aug-14 14:31N 53°07' E 008°43'0 0.0
2014-Aug-14 13:31N 53°07' E 008°43'0 0.0
2014-Aug-14 12:31N 53°07' E 008°43'0 0.0
2014-Aug-14 11:31N 53°07' E 008°43'0 0.1
2014-Aug-14 10:31N 53°07' E 008°43'0 0.0
2014-Aug-14 09:31N 53°08' E 008°43'0 0.0
2014-Aug-14 08:31N 53°08' E 008°43'0 0.0
2014-Aug-14 07:31N 53°08' E 008°43'0 0.0
2014-Aug-14 06:31N 53°08' E 008°43'0 0.4
2014-Aug-14 05:33N 53°07' E 008°43'5 4.7
2014-Aug-14 04:33N 53°10' E 008°37'9 9.0
2014-Aug-14 03:33N 53°18' E 008°29'1111.2
2014-Aug-14 02:33N 53°29' E 008°30'8 7.6
2014-Aug-14 01:33N 53°37' E 008°29'1413.8
2014-Aug-14 00:33N 53°46' E 008°11'1212.4
2014-Aug-13 23:33N 53°51' E 007°53'6613.2
2014-Aug-13 18:31N 53°41' E 006°02'1313.0
2014-Aug-13 17:33N 53°37' E 005°42'1212.2
2014-Aug-13 16:33N 53°33' E 005°22'1212.0
2014-Aug-13 15:34N 53°29' E 005°03'1111.1
2014-Aug-13 14:33N 53°24' E 004°46'13110.9
2014-Aug-13 02:33N 51°42' E 002°32'1212.2
2014-Aug-13 01:32N 51°32' E 002°19'1111.4
2014-Aug-13 00:33N 51°22' E 002°10'1111.0
2014-Aug-12 23:33N 51°13' E 002°02'1211.9
2014-Aug-12 22:33N 51°06' E 001°46'6 6.5
2014-Aug-12 21:34N 51°02' E 001°53'1412.7
2014-Aug-12 20:29N 51°04' E 002°14'4 4.0
2014-Aug-12 19:33N 51°03' E 002°20'2 1.8
2014-Aug-12 18:30N 51°03' E 002°18'1 1.3
2014-Aug-12 17:33N 51°02' E 002°16'0 0.0
2014-Aug-12 16:33N 51°02' E 002°16'0 0.0
2014-Aug-12 15:33N 51°02' E 002°16'0 0.0
2014-Aug-12 14:33N 51°02' E 002°16'0 0.0
2014-Aug-12 13:33N 51°02' E 002°16'  

Dump ship's entire track history